createdAt,value
2019-05-01T00:01:32.611Z,93108.43
2019-05-01T00:04:23.350Z,93095.78
2019-05-01T00:06:57.827Z,93100.73
2019-05-01T00:09:32.470Z,93112.17
2019-05-01T00:12:05.708Z,93112.41
2019-05-01T00:14:39.028Z,93120.08
2019-05-01T00:17:12.333Z,93120.99
2019-05-01T00:19:45.267Z,93129.66
2019-05-01T00:22:18.168Z,93131.28
2019-05-01T00:24:52.068Z,93133.31
2019-05-01T00:27:25.534Z,93125.97
2019-05-01T00:29:58.489Z,93121.78
2019-05-01T00:32:31.375Z,93126.56
2019-05-01T00:35:04.208Z,93116.51
2019-05-01T00:37:37.927Z,93120.70
2019-05-01T00:40:10.967Z,93127.06
2019-05-01T00:42:43.908Z,93132.08
2019-05-01T00:45:16.947Z,93132.37
2019-05-01T00:47:49.956Z,93133.42
2019-05-01T00:50:22.975Z,93132.15
2019-05-01T00:52:56.487Z,93130.03
2019-05-01T00:55:38.107Z,93134.48
2019-05-01T00:58:23.410Z,93139.52
2019-05-01T01:01:14.227Z,93121.05
2019-05-01T01:03:47.829Z,93120.99
2019-05-01T01:06:21.388Z,93115.68
2019-05-01T01:08:54.396Z,93111.20
2019-05-01T01:11:27.427Z,93111.53
2019-05-01T01:14:00.377Z,93112.55
2019-05-01T01:16:33.591Z,93110.18
2019-05-01T01:19:06.948Z,93111.47
2019-05-01T01:21:40.097Z,93109.05
2019-05-01T01:24:12.967Z,93114.45
2019-05-01T01:26:46.076Z,93116.00
2019-05-01T01:29:19.076Z,93116.81
2019-05-01T01:31:52.248Z,93105.05
2019-05-01T01:34:25.128Z,93098.50
2019-05-01T01:36:58.236Z,93086.25
2019-05-01T01:39:31.327Z,93089.34
2019-05-01T01:42:04.227Z,93093.34
2019-05-01T01:44:47.627Z,93098.15
2019-05-01T01:47:21.268Z,93101.33
2019-05-01T01:49:54.236Z,93102.95
2019-05-01T01:52:27.576Z,93094.25
2019-05-01T01:55:00.747Z,93101.89
2019-05-01T01:57:33.627Z,93093.68
2019-05-01T02:00:08.216Z,93098.73
2019-05-01T02:02:43.388Z,93087.92
2019-05-01T02:05:17.862Z,93104.34
2019-05-01T02:07:50.948Z,93094.84
2019-05-01T02:10:23.971Z,93097.94
2019-05-01T02:12:57.188Z,93094.28
2019-05-01T02:15:30.037Z,93101.17
2019-05-01T02:18:03.137Z,93092.44
2019-05-01T02:20:36.148Z,93090.86
2019-05-01T02:23:09.135Z,93085.35
2019-05-01T02:25:43.668Z,93090.36
2019-05-01T02:28:27.148Z,93083.50
2019-05-01T02:31:07.349Z,93096.20
2019-05-01T02:33:41.772Z,93093.82
2019-05-01T02:36:15.029Z,93086.44
2019-05-01T02:38:47.989Z,93097.48
2019-05-01T02:41:21.036Z,93088.75
2019-05-01T02:43:53.959Z,93090.55
2019-05-01T02:46:27.042Z,93083.97
2019-05-01T02:49:00.258Z,93092.73
2019-05-01T02:51:33.215Z,93091.08
2019-05-01T02:54:06.168Z,93077.47
2019-05-01T02:56:41.259Z,93102.80
2019-05-01T02:59:14.502Z,93102.55
2019-05-01T03:01:48.192Z,93098.05
2019-05-01T03:04:21.363Z,93097.25
2019-05-01T03:06:55.009Z,93089.88
2019-05-01T03:09:28.310Z,93097.80
2019-05-01T03:12:01.316Z,93088.81
2019-05-01T03:14:34.295Z,93091.16
2019-05-01T03:17:08.937Z,93098.04
2019-05-01T03:19:46.949Z,93096.77
2019-05-01T03:22:30.816Z,93098.09
2019-05-01T03:25:03.679Z,93101.24
2019-05-01T03:27:36.917Z,93097.55
2019-05-01T03:30:09.872Z,93104.16
2019-05-01T03:32:42.789Z,93109.97
2019-05-01T03:35:15.677Z,93113.94
2019-05-01T03:37:48.817Z,93122.91
2019-05-01T03:40:21.607Z,93118.95
2019-05-01T03:42:54.670Z,93119.20
2019-05-01T03:45:27.930Z,93118.41
2019-05-01T03:48:00.890Z,93116.83
2019-05-01T03:50:33.777Z,93116.57
2019-05-01T03:53:07.189Z,93118.14
2019-05-01T03:55:40.110Z,93117.63
2019-05-01T03:58:13.049Z,93118.42
2019-05-01T04:01:00.558Z,93113.38
2019-05-01T04:03:43.989Z,93123.16
2019-05-01T04:06:17.369Z,93107.34
2019-05-01T04:08:50.276Z,93121.56
2019-05-01T04:11:23.776Z,93116.05
2019-05-01T04:13:56.629Z,93109.95
2019-05-01T04:16:30.474Z,93113.41
2019-05-01T04:19:03.414Z,93118.94
2019-05-01T04:21:38.190Z,93120.53
2019-05-01T04:24:11.029Z,93120.52
2019-05-01T04:26:44.489Z,93117.89
2019-05-01T04:29:17.170Z,93113.12
2019-05-01T04:31:57.790Z,93109.43
2019-05-01T04:34:44.728Z,93109.69
2019-05-01T04:37:19.090Z,93116.05
2019-05-01T04:39:52.452Z,93112.34
2019-05-01T04:42:25.757Z,93114.44
2019-05-01T04:44:59.202Z,93119.48
2019-05-01T04:47:32.409Z,93112.33
2019-05-01T04:50:05.329Z,93116.80
2019-05-01T04:52:39.002Z,93118.16
2019-05-01T04:55:12.256Z,93123.16
2019-05-01T04:57:45.128Z,93129.48
2019-05-01T05:00:18.223Z,93128.70
2019-05-01T05:03:04.025Z,93127.92
2019-05-01T05:05:27.307Z,93129.50
2019-05-01T05:08:00.268Z,93129.25
2019-05-01T05:10:33.108Z,93127.66
2019-05-01T05:13:10.855Z,93128.44
2019-05-01T05:15:45.551Z,93135.31
2019-05-01T05:18:18.367Z,93135.83
2019-05-01T05:20:51.428Z,93138.21
2019-05-01T05:23:26.828Z,93137.44
2019-05-01T05:25:59.947Z,93133.19
2019-05-01T05:28:32.928Z,93129.77
2019-05-01T05:31:05.868Z,93130.57
2019-05-01T05:33:38.849Z,93125.00
2019-05-01T05:36:11.675Z,93137.64
2019-05-01T05:38:54.928Z,93134.72
2019-05-01T05:41:31.028Z,93132.10
2019-05-01T05:44:04.061Z,93119.42
2019-05-01T05:46:36.948Z,93137.16
2019-05-01T05:49:09.808Z,93127.91
2019-05-01T05:51:44.417Z,93129.20
2019-05-01T05:54:32.128Z,93126.50
2019-05-01T05:57:15.728Z,93128.91
2019-05-01T06:00:06.512Z,93129.39
2019-05-01T06:02:44.007Z,93130.77
2019-05-01T06:05:34.982Z,93139.52
2019-05-01T06:08:15.567Z,93133.73
2019-05-01T06:10:58.401Z,93128.39
2019-05-01T06:13:52.586Z,93125.77
2019-05-01T06:16:24.567Z,93130.75
2019-05-01T06:19:09.728Z,93132.26
2019-05-01T06:21:58.967Z,93132.82
2019-05-01T06:24:51.607Z,93135.53
2019-05-01T06:27:24.668Z,93131.59
2019-05-01T06:29:57.477Z,93133.59
2019-05-01T06:32:33.541Z,93126.70
2019-05-01T06:35:05.039Z,93126.17
2019-05-01T06:37:37.928Z,93127.84
2019-05-01T06:40:12.330Z,93127.83
2019-05-01T06:42:45.647Z,93129.83
2019-05-01T06:45:20.753Z,93137.30
2019-05-01T06:47:55.368Z,93133.58
2019-05-01T06:50:36.759Z,93137.78
2019-05-01T06:53:07.391Z,93139.94
2019-05-01T06:55:40.310Z,93133.58
2019-05-01T06:58:14.840Z,93129.28
2019-05-01T07:00:47.950Z,93141.06
2019-05-01T07:03:21.033Z,93136.20
2019-05-01T07:05:55.982Z,93130.84
2019-05-01T07:08:29.485Z,93129.63
2019-05-01T07:11:03.811Z,93135.19
2019-05-01T07:13:40.075Z,93121.97
2019-05-01T07:16:13.116Z,93135.70
2019-05-01T07:18:46.007Z,93132.28
2019-05-01T07:21:22.768Z,93130.45
2019-05-01T07:23:53.529Z,93134.16
2019-05-01T07:26:26.368Z,93146.72
2019-05-01T07:29:06.045Z,93147.59
2019-05-01T07:31:38.976Z,93141.50
2019-05-01T07:34:16.773Z,93140.94
2019-05-01T07:36:50.248Z,93143.38
2019-05-01T07:39:21.107Z,93140.33
2019-05-01T07:41:56.028Z,93141.66
2019-05-01T07:44:33.782Z,93138.58
2019-05-01T07:47:15.301Z,93153.64
2019-05-01T07:49:52.730Z,93142.73
2019-05-01T07:52:23.417Z,93148.23
2019-05-01T07:54:56.624Z,93148.72
2019-05-01T07:57:29.413Z,93143.35
2019-05-01T08:00:08.129Z,93156.87
2019-05-01T08:02:38.516Z,93157.37
2019-05-01T08:05:11.778Z,93162.69
2019-05-01T08:07:45.116Z,93149.55
2019-05-01T08:10:20.960Z,93152.98
2019-05-01T08:12:55.500Z,93143.26
2019-05-01T08:15:32.303Z,93155.24
2019-05-01T08:18:15.375Z,93153.19
2019-05-01T08:20:56.310Z,93155.77
2019-05-01T08:23:29.450Z,93157.43
2019-05-01T08:26:07.170Z,93148.10
2019-05-01T08:28:53.937Z,93157.45
2019-05-01T08:31:37.890Z,93161.56
2019-05-01T08:34:14.028Z,93164.19
2019-05-01T08:36:48.366Z,93164.20
2019-05-01T08:39:21.709Z,93163.59
2019-05-01T08:41:54.616Z,93175.25
2019-05-01T08:44:29.908Z,93175.61
2019-05-01T08:47:03.568Z,93184.44
2019-05-01T08:49:36.228Z,93186.89
2019-05-01T08:52:13.653Z,93182.15
2019-05-01T08:54:44.509Z,93181.38
2019-05-01T08:57:17.667Z,93180.91
2019-05-01T08:59:51.037Z,93174.26
2019-05-01T09:02:24.815Z,93176.22
2019-05-01T09:05:02.516Z,93186.17
2019-05-01T09:07:32.664Z,93175.43
2019-05-01T09:10:08.797Z,93189.56
2019-05-01T09:12:42.759Z,93168.65
2019-05-01T09:15:17.068Z,93177.74
2019-05-01T09:17:49.927Z,93180.13
2019-05-01T09:20:23.788Z,93170.80
2019-05-01T09:22:57.890Z,93163.69
2019-05-01T09:25:35.237Z,93185.88
2019-05-01T09:28:09.535Z,93174.27
2019-05-01T09:30:44.293Z,93179.16
2019-05-01T09:33:17.411Z,93188.94
2019-05-01T09:35:50.691Z,93185.23
2019-05-01T09:38:24.592Z,93191.89
2019-05-01T09:40:57.499Z,93190.81
2019-05-01T09:43:31.006Z,93189.41
2019-05-01T09:46:05.112Z,93187.03
2019-05-01T09:48:38.654Z,93195.82
2019-05-01T09:51:19.172Z,93183.20
2019-05-01T09:54:05.643Z,93192.98
2019-05-01T09:56:38.445Z,93184.30
2019-05-01T09:59:12.641Z,93185.04
2019-05-01T10:01:46.478Z,93181.47
2019-05-01T10:04:19.528Z,93178.05
2019-05-01T10:06:54.142Z,93186.97
2019-05-01T10:09:30.296Z,93180.89
2019-05-01T10:12:03.129Z,93185.29
2019-05-01T10:14:37.379Z,93176.03
2019-05-01T10:17:13.436Z,93172.35
2019-05-01T10:19:45.428Z,93181.62
2019-05-01T10:22:18.968Z,93182.17
2019-05-01T10:24:51.868Z,93173.67
2019-05-01T10:27:26.389Z,93168.28
2019-05-01T10:30:03.128Z,93178.83
2019-05-01T10:32:44.170Z,93169.36
2019-05-01T10:35:23.251Z,93172.34
2019-05-01T10:37:57.310Z,93177.09
2019-05-01T10:40:32.371Z,93175.60
2019-05-01T10:43:04.950Z,93167.11
2019-05-01T10:45:37.828Z,93172.61
2019-05-01T10:48:12.788Z,93171.72
2019-05-01T10:50:45.728Z,93157.95
2019-05-01T10:53:18.628Z,93162.95
2019-05-01T10:55:51.976Z,93158.16
2019-05-01T10:58:24.978Z,93165.68
2019-05-01T11:01:02.311Z,93165.77
2019-05-01T11:03:35.509Z,93168.22
2019-05-01T11:06:08.887Z,93160.68
2019-05-01T11:08:41.967Z,93160.11
2019-05-01T11:11:15.111Z,93156.80
2019-05-01T11:13:48.188Z,93154.97
2019-05-01T11:16:21.209Z,93155.33
2019-05-01T11:18:54.488Z,93156.36
2019-05-01T11:21:27.748Z,93154.20
2019-05-01T11:24:01.128Z,93146.97
2019-05-01T11:26:34.909Z,93154.81
2019-05-01T11:29:07.868Z,93151.98
2019-05-01T11:31:58.868Z,93157.69
2019-05-01T11:34:37.628Z,93147.69
2019-05-01T11:37:25.428Z,93146.50
2019-05-01T11:40:00.308Z,93150.67
2019-05-01T11:42:34.388Z,93157.34
2019-05-01T11:45:07.328Z,93146.48
2019-05-01T11:47:40.347Z,93153.64
2019-05-01T11:50:13.307Z,93148.92
2019-05-01T11:52:46.353Z,93150.56
2019-05-01T11:55:19.274Z,93146.89
2019-05-01T11:57:52.315Z,93136.77
2019-05-01T12:00:26.235Z,93140.75
2019-05-01T12:02:59.297Z,93134.41
2019-05-01T12:05:32.128Z,93143.16
2019-05-01T12:08:05.051Z,93140.70
2019-05-01T12:10:38.053Z,93134.27
2019-05-01T12:13:10.971Z,93135.83
2019-05-01T12:15:45.599Z,93131.86
2019-05-01T12:18:18.792Z,93133.15
2019-05-01T12:20:51.889Z,93127.57
2019-05-01T12:23:25.108Z,93124.91
2019-05-01T12:25:58.334Z,93123.63
2019-05-01T12:28:31.309Z,93133.09
2019-05-01T12:31:04.352Z,93121.15
2019-05-01T12:33:37.368Z,93125.78
2019-05-01T12:36:11.187Z,93121.19
2019-05-01T12:38:44.311Z,93114.55
2019-05-01T12:41:31.371Z,93107.23
2019-05-01T12:44:04.049Z,93118.76
2019-05-01T12:46:53.658Z,93113.19
2019-05-01T12:49:26.668Z,93109.70
2019-05-01T12:52:10.337Z,93118.13
2019-05-01T12:54:51.852Z,93121.15
2019-05-01T12:57:24.653Z,93113.41
2019-05-01T13:00:08.098Z,93111.30
2019-05-01T13:02:32.312Z,93105.70
2019-05-01T13:05:05.252Z,93108.64
2019-05-01T13:07:38.291Z,93107.17
2019-05-01T13:10:11.294Z,93113.87
2019-05-01T13:12:44.472Z,93107.84
2019-05-01T13:15:17.662Z,93098.31
2019-05-01T13:17:50.852Z,93104.22
2019-05-01T13:20:24.250Z,93107.15
2019-05-01T13:22:57.490Z,93101.13
2019-05-01T13:25:31.111Z,93097.84
2019-05-01T13:28:22.032Z,93096.60
2019-05-01T13:30:56.429Z,93091.57
2019-05-01T13:33:29.309Z,93083.06
2019-05-01T13:36:02.831Z,93092.12
2019-05-01T13:38:35.930Z,93080.34
2019-05-01T13:41:09.258Z,93087.50
2019-05-01T13:43:42.529Z,93086.08
2019-05-01T13:46:15.710Z,93089.11
2019-05-01T13:48:49.218Z,93086.59
2019-05-01T13:51:22.230Z,93086.82
2019-05-01T13:53:56.130Z,93090.26
2019-05-01T13:56:29.797Z,93085.89
2019-05-01T13:59:02.661Z,93085.34
2019-05-01T14:01:36.157Z,93075.93
2019-05-01T14:04:10.651Z,93078.34
2019-05-01T14:06:45.432Z,93076.20
2019-05-01T14:09:20.109Z,93074.11
2019-05-01T14:11:53.629Z,93077.54
2019-05-01T14:14:26.558Z,93068.73
2019-05-01T14:16:59.732Z,93073.89
2019-05-01T14:19:33.652Z,93068.57
2019-05-01T14:22:24.690Z,93065.53
2019-05-01T14:24:59.192Z,93071.70
2019-05-01T14:27:32.170Z,93069.44
2019-05-01T14:30:05.230Z,93073.55
2019-05-01T14:32:38.512Z,93068.08
2019-05-01T14:35:11.812Z,93064.34
2019-05-01T14:37:44.790Z,93065.25
2019-05-01T14:40:18.577Z,93063.56
2019-05-01T14:42:51.509Z,93061.21
2019-05-01T14:45:25.578Z,93063.95
2019-05-01T14:48:00.046Z,93065.22
2019-05-01T14:50:32.890Z,93068.36
2019-05-01T14:53:05.872Z,93074.33
2019-05-01T14:55:38.932Z,93067.77
2019-05-01T14:58:12.330Z,93069.30
2019-05-01T15:00:45.190Z,93073.32
2019-05-01T15:03:18.274Z,93086.09
2019-05-01T15:05:51.289Z,93080.95
2019-05-01T15:08:26.289Z,93074.28
2019-05-01T15:10:59.267Z,93078.95
2019-05-01T15:13:49.211Z,93077.72
2019-05-01T15:16:23.812Z,93071.37
2019-05-01T15:19:05.953Z,93084.38
2019-05-01T15:21:39.211Z,93076.02
2019-05-01T15:24:12.195Z,93080.63
2019-05-01T15:26:47.143Z,93083.74
2019-05-01T15:29:19.980Z,93087.24
2019-05-01T15:31:52.830Z,93081.44
2019-05-01T15:34:25.891Z,93091.27
2019-05-01T15:36:59.371Z,93091.22
2019-05-01T15:39:36.890Z,93091.73
2019-05-01T15:42:11.571Z,93092.80
2019-05-01T15:44:47.780Z,93100.78
2019-05-01T15:47:19.831Z,93096.36
2019-05-01T15:49:52.837Z,93100.75
2019-05-01T15:52:25.691Z,93104.84
2019-05-01T15:54:58.671Z,93101.78
2019-05-01T15:57:32.111Z,93105.80
2019-05-01T16:00:05.175Z,93107.48
2019-05-01T16:02:38.012Z,93109.88
2019-05-01T16:05:11.368Z,93103.17
2019-05-01T16:07:44.691Z,93107.12
2019-05-01T16:10:19.268Z,93106.13
2019-05-01T16:16:14.587Z,93105.16
2019-05-01T16:18:47.551Z,93108.38
2019-05-01T16:21:20.848Z,93105.64
2019-05-01T16:23:53.908Z,93106.48
2019-05-01T16:26:26.708Z,93096.21
2019-05-01T16:28:59.868Z,93096.92
2019-05-01T16:31:32.789Z,93099.98
2019-05-01T16:34:05.695Z,93099.20
2019-05-01T16:36:41.429Z,93104.28
2019-05-01T16:39:15.010Z,93105.27
2019-05-01T16:41:49.727Z,93104.30
2019-05-01T16:44:22.649Z,93106.91
2019-05-01T16:46:56.148Z,93105.92
2019-05-01T16:50:07.868Z,93104.06
2019-05-01T16:52:41.470Z,93102.79
2019-05-01T16:55:15.068Z,93111.97
2019-05-01T16:57:47.868Z,93107.61
2019-05-01T17:00:21.788Z,93110.91
2019-05-01T17:02:56.428Z,93114.53
2019-05-01T17:05:50.687Z,93115.05
2019-05-01T17:08:36.444Z,93106.39
2019-05-01T17:11:10.680Z,93102.00
2019-05-01T17:13:43.848Z,93106.67
2019-05-01T17:16:17.114Z,93110.24
2019-05-01T17:18:50.111Z,93116.05
2019-05-01T17:21:23.189Z,93113.61
2019-05-01T17:23:56.088Z,93114.96
2019-05-01T17:26:28.970Z,93119.95
2019-05-01T17:29:01.955Z,93120.72
2019-05-01T17:31:35.068Z,93119.78
2019-05-01T17:34:09.690Z,93120.05
2019-05-01T17:36:42.952Z,93126.30
2019-05-01T17:39:18.148Z,93129.19
2019-05-01T17:41:51.427Z,93123.70
2019-05-01T17:44:25.410Z,93127.83
2019-05-01T17:46:59.552Z,93122.82
2019-05-01T17:49:32.547Z,93123.30
2019-05-01T17:52:07.307Z,93127.17
2019-05-01T17:54:40.327Z,93132.14
2019-05-01T17:57:13.288Z,93127.52
2019-05-01T17:59:47.828Z,93131.11
2019-05-01T18:02:20.436Z,93121.11
2019-05-01T18:05:12.987Z,93127.42
2019-05-01T18:07:45.855Z,93124.28
2019-05-01T18:10:18.727Z,93120.91
2019-05-01T18:12:51.875Z,93125.34
2019-05-01T18:15:24.969Z,93127.09
2019-05-01T18:17:57.748Z,93126.40
2019-05-01T18:20:31.009Z,93132.83
2019-05-01T18:23:24.275Z,93129.47
2019-05-01T18:26:08.704Z,93132.81
2019-05-01T18:28:42.448Z,93132.31
2019-05-01T18:31:17.428Z,93130.75
2019-05-01T18:33:50.947Z,93135.13
2019-05-01T18:36:25.776Z,93140.01
2019-05-01T18:39:16.574Z,93139.86
2019-05-01T18:41:50.596Z,93147.53
2019-05-01T18:44:23.438Z,93147.98
2019-05-01T18:46:56.732Z,93151.03
2019-05-01T18:49:29.564Z,93154.17
2019-05-01T18:52:02.587Z,93155.83
2019-05-01T18:54:36.460Z,93156.31
2019-05-01T18:57:09.451Z,93158.08
2019-05-01T18:59:42.971Z,93160.39
2019-05-01T19:02:15.829Z,93169.55
2019-05-01T19:04:49.810Z,93169.05
2019-05-01T19:07:22.848Z,93167.42
2019-05-01T19:09:55.889Z,93168.72
2019-05-01T19:12:31.220Z,93170.45
2019-05-01T19:15:05.447Z,93167.47
2019-05-01T19:17:38.630Z,93167.11
2019-05-01T19:20:11.918Z,93164.97
2019-05-01T19:22:45.785Z,93164.50
2019-05-01T19:25:18.850Z,93162.33
2019-05-01T19:27:51.791Z,93165.77
2019-05-01T19:30:24.712Z,93164.28
2019-05-01T19:32:57.570Z,93164.76
2019-05-01T19:35:34.112Z,93172.59
2019-05-01T19:38:05.121Z,93167.61
2019-05-01T19:40:37.933Z,93169.45
2019-05-01T19:43:10.970Z,93163.11
2019-05-01T19:45:43.950Z,93168.44
2019-05-01T19:48:16.951Z,93168.11
2019-05-01T19:50:49.945Z,93166.95
2019-05-01T19:53:23.169Z,93171.48
2019-05-01T19:55:55.997Z,93170.33
2019-05-01T19:58:29.151Z,93172.41
2019-05-01T20:01:04.592Z,93176.05
2019-05-01T20:03:38.627Z,93181.53
2019-05-01T20:06:11.971Z,93175.50
2019-05-01T20:08:45.028Z,93182.23
2019-05-01T20:11:17.850Z,93181.08
2019-05-01T20:13:50.867Z,93178.47
2019-05-01T20:16:23.910Z,93180.59
2019-05-01T20:18:56.909Z,93179.85
2019-05-01T20:21:29.782Z,93179.19
2019-05-01T20:24:04.342Z,93175.44
2019-05-01T20:26:37.190Z,93176.92
2019-05-01T20:29:10.578Z,93177.02
2019-05-01T20:31:45.801Z,93172.72
2019-05-01T20:34:18.814Z,93175.67
2019-05-01T20:36:51.617Z,93174.11
2019-05-01T20:39:24.653Z,93171.70
2019-05-01T20:41:58.049Z,93176.17
2019-05-01T20:44:31.728Z,93178.78
2019-05-01T20:47:04.539Z,93178.24
2019-05-01T20:49:41.334Z,93171.53
2019-05-01T20:52:12.708Z,93171.66
2019-05-01T20:54:45.648Z,93171.22
2019-05-01T20:57:21.081Z,93165.86
2019-05-01T20:59:54.790Z,93165.25
2019-05-01T21:02:27.990Z,93168.02
2019-05-01T21:05:18.768Z,93164.70
2019-05-01T21:08:06.575Z,93168.55
2019-05-01T21:10:50.457Z,93172.16
2019-05-01T21:13:24.946Z,93166.31
2019-05-01T21:16:01.633Z,93166.77
2019-05-01T21:18:32.427Z,93166.93
2019-05-01T21:21:05.427Z,93171.83
2019-05-01T21:23:38.441Z,93173.53
2019-05-01T21:26:11.435Z,93167.61
2019-05-01T21:28:44.974Z,93174.29
2019-05-01T21:31:18.296Z,93172.63
2019-05-01T21:33:51.187Z,93171.36
2019-05-01T21:36:24.649Z,93170.20
2019-05-01T21:38:57.636Z,93171.08
2019-05-01T21:41:32.741Z,93163.11
2019-05-01T21:44:06.828Z,93172.33
2019-05-01T21:46:39.730Z,93167.22
2019-05-01T21:49:13.146Z,93166.44
2019-05-01T21:51:47.068Z,93165.77
2019-05-01T21:54:20.670Z,93169.42
2019-05-01T21:56:54.588Z,93163.05
2019-05-01T21:59:27.636Z,93169.42
2019-05-01T22:02:00.627Z,93162.98
2019-05-01T22:04:33.868Z,93162.70
2019-05-01T22:07:08.107Z,93165.98
2019-05-01T22:09:45.743Z,93160.12
2019-05-01T22:12:15.995Z,93165.70
2019-05-01T22:14:56.717Z,93169.22
2019-05-01T22:17:32.248Z,93165.86
2019-05-01T22:20:07.039Z,93173.87
2019-05-01T22:22:47.768Z,93174.98
2019-05-01T22:25:22.294Z,93174.98
2019-05-01T22:27:56.767Z,93170.17
2019-05-01T22:30:31.527Z,93173.24
2019-05-01T22:33:04.468Z,93178.67
2019-05-01T22:35:39.128Z,93180.19
2019-05-01T22:38:12.540Z,93181.03
2019-05-01T22:41:06.487Z,93172.33
2019-05-01T22:43:37.208Z,93173.87
2019-05-01T22:46:11.847Z,93180.84
2019-05-01T22:48:44.688Z,93183.24
2019-05-01T22:51:19.276Z,93190.09
2019-05-01T22:53:55.295Z,93179.08
2019-05-01T22:56:29.395Z,93184.70
2019-05-01T22:59:02.390Z,93179.56
2019-05-01T23:01:35.836Z,93180.80
2019-05-01T23:04:12.191Z,93180.13
2019-05-01T23:06:43.515Z,93177.25
2019-05-01T23:09:18.009Z,93178.61
2019-05-01T23:11:50.848Z,93173.52
2019-05-01T23:14:25.275Z,93176.64
2019-05-01T23:17:16.147Z,93174.78
2019-05-01T23:19:49.148Z,93175.33
2019-05-01T23:22:23.715Z,93172.74
2019-05-01T23:24:57.208Z,93173.19
2019-05-01T23:27:30.779Z,93170.18
2019-05-01T23:30:05.110Z,93168.24
2019-05-01T23:32:38.396Z,93163.62
2019-05-01T23:35:11.422Z,93161.58
2019-05-01T23:37:44.535Z,93154.80
2019-05-01T23:40:17.448Z,93154.98
2019-05-01T23:42:53.671Z,93153.06
2019-05-01T23:45:24.827Z,93148.90
2019-05-01T23:47:57.788Z,93144.28
2019-05-01T23:50:31.047Z,93139.84
2019-05-01T23:53:04.009Z,93139.20
2019-05-01T23:55:37.273Z,93133.55
2019-05-01T23:58:10.413Z,93134.16
